Time;durP1;ratioP1;P1;durP2;ratioP2;P2;SDS_P1;SDS_P2;PMS_P1;PMS_P2;Temp;Humidity;BMP_temperature;BMP_pressure;BME280_temperature;BME280_humidity;BME280_pressure;Samples;Min_cycle;Max_cycle;Signal;HPM_P1;HPM_P2
2023/05/05 00:02:11;;;;;;;17.73;12.10;;;;;;;16.33;71.53;101390.03;5022215;28;20110;-85
2023/05/05 00:04:39;;;;;;;18.25;11.52;;;;;;;16.40;71.75;101391.50;5021069;28;20037;-85
2023/05/05 00:07:04;;;;;;;21.52;11.68;;;;;;;16.43;71.85;101387.94;5021304;28;20280;-85
2023/05/05 00:09:30;;;;;;;20.07;11.93;;;;;;;16.47;72.78;101392.97;5025423;28;20041;-91
2023/05/05 00:11:55;;;;;;;18.17;11.52;;;;;;;16.48;72.99;101399.94;5027605;28;20382;-92
2023/05/05 00:14:21;;;;;;;19.33;11.93;;;;;;;16.51;71.96;101393.72;5027265;28;20021;-89
2023/05/05 00:16:46;;;;;;;18.65;11.82;;;;;;;16.51;73.07;101386.69;5029256;28;20026;-91
2023/05/05 00:19:11;;;;;;;15.50;11.10;;;;;;;16.53;72.65;101392.72;5025936;28;20037;-91
2023/05/05 00:21:37;;;;;;;16.67;11.30;;;;;;;16.49;73.00;101385.94;5028858;28;20028;-91
2023/05/05 00:24:02;;;;;;;18.60;11.68;;;;;;;16.50;74.19;101392.88;5029477;28;20931;-92
2023/05/05 00:26:27;;;;;;;18.58;12.40;;;;;;;16.53;74.52;101395.34;5029042;28;20896;-91
2023/05/05 00:28:53;;;;;;;17.35;12.45;;;;;;;16.54;74.26;101396.22;5025196;28;20025;-91
2023/05/05 00:31:18;;;;;;;18.25;12.10;;;;;;;16.60;74.50;101398.63;5029476;28;21397;-92
2023/05/05 00:33:43;;;;;;;18.30;12.00;;;;;;;16.64;75.04;101391.50;5027912;28;20501;-91
2023/05/05 00:36:09;;;;;;;20.25;13.13;;;;;;;16.65;75.92;101395.84;5026109;28;20124;-91
2023/05/05 00:38:34;;;;;;;20.52;12.80;;;;;;;16.70;75.84;101404.34;5028917;28;20510;-91
2023/05/05 00:40:59;;;;;;;21.40;13.40;;;;;;;16.71;76.53;101411.28;5028408;28;20064;-91
2023/05/05 00:43:25;;;;;;;24.98;13.77;;;;;;;16.70;77.08;101409.59;5029965;28;20056;-91
2023/05/05 00:46:00;;;;;;;21.38;14.68;;;;;;;16.69;77.90;101413.09;5025958;28;20025;-92
2023/05/05 00:48:28;;;;;;;21.10;14.30;;;;;;;16.66;78.03;101400.13;5027637;28;20632;-92
2023/05/05 00:50:53;;;;;;;22.67;14.48;;;;;;;16.65;79.31;101390.59;5026694;28;20029;-91
2023/05/05 00:53:19;;;;;;;23.30;14.57;;;;;;;16.60;78.34;101398.63;5026222;28;20083;-91
2023/05/05 00:55:45;;;;;;;23.02;14.65;;;;;;;16.55;79.11;101392.69;5025844;28;20295;-92
2023/05/05 00:58:12;;;;;;;21.33;14.60;;;;;;;16.50;79.31;101403.34;5016465;28;20033;-92
2023/05/05 01:00:37;;;;;;;23.30;14.57;;;;;;;16.47;79.75;101403.44;5027229;28;20032;-92
2023/05/05 01:03:04;;;;;;;21.53;14.97;;;;;;;16.44;79.80;101421.91;5026859;28;20053;-93
2023/05/05 01:05:41;;;;;;;23.65;15.52;;;;;;;16.46;80.49;101427.91;5026573;28;20291;-91
2023/05/05 01:08:18;;;;;;;19.58;13.88;;;;;;;16.45;79.39;101420.09;5027113;28;21298;-91
2023/05/05 01:11:03;;;;;;;24.35;14.68;;;;;;;16.43;80.63;101414.97;5025747;28;20037;-91
2023/05/05 01:14:00;;;;;;;26.23;14.45;;;;;;;16.41;79.31;101414.16;5028149;28;21523;-91
2023/05/05 01:16:32;;;;;;;20.80;14.25;;;;;;;16.36;81.25;101425.72;5021171;28;20067;-91
2023/05/05 01:19:38;;;;;;;23.63;15.57;;;;;;;16.33;79.48;101420.59;5026297;28;20033;-92
2023/05/05 01:22:07;;;;;;;21.85;14.30;;;;;;;16.26;81.05;101424.34;5001605;28;20061;-92
2023/05/05 01:24:42;;;;;;;20.73;14.02;;;;;;;16.24;80.09;101437.47;5027170;28;20036;-91
2023/05/05 01:27:22;;;;;;;20.67;13.50;;;;;;;16.22;80.50;101439.31;5027489;28;20025;-92
2023/05/05 01:30:02;;;;;;;19.02;13.07;;;;;;;16.19;79.92;101435.03;5025369;28;20402;-91
2023/05/05 01:32:32;;;;;;;19.77;12.38;;;;;;;16.16;80.46;101437.78;5035523;28;20406;-91
2023/05/05 01:35:07;;;;;;;18.45;13.00;;;;;;;16.09;80.74;101443.31;5026897;28;20061;-92
2023/05/05 01:37:52;;;;;;;19.15;12.32;;;;;;;15.97;80.63;101423.66;5026238;28;20122;-91
2023/05/05 01:40:25;;;;;;;18.73;11.60;;;;;;;16.05;79.54;101442.56;5014609;28;20025;-91
2023/05/05 01:42:53;;;;;;;15.43;10.45;;;;;;;16.04;79.01;101434.75;5026651;28;20040;-91
2023/05/05 01:45:20;;;;;;;15.73;10.13;;;;;;;16.00;80.99;101422.72;5040441;28;20040;-91
2023/05/05 01:47:47;;;;;;;15.25;10.05;;;;;;;15.99;80.26;101413.16;5024490;28;20080;-91
2023/05/05 01:50:14;;;;;;;14.43;10.05;;;;;;;15.93;79.17;101406.41;5025636;28;20025;-91
2023/05/05 01:52:41;;;;;;;13.60;9.00;;;;;;;15.94;80.85;101412.47;5029990;28;20045;-91
2023/05/05 01:55:08;;;;;;;13.30;9.38;;;;;;;15.89;79.40;101406.56;5040692;28;20034;-91
2023/05/05 01:57:36;;;;;;;13.98;8.73;;;;;;;15.85;80.47;101421.50;5040477;28;20089;-92
2023/05/05 02:00:03;;;;;;;12.85;9.02;;;;;;;15.81;82.04;101425.16;5027792;28;20060;-92
2023/05/05 02:02:30;;;;;;;13.32;9.25;;;;;;;15.77;79.32;101427.00;5027373;28;20029;-91
2023/05/05 02:04:57;;;;;;;11.82;8.63;;;;;;;15.74;80.67;101426.28;5025679;28;20041;-91
2023/05/05 02:07:23;;;;;;;14.30;9.07;;;;;;;15.70;80.57;101424.66;5027449;28;20707;-92
2023/05/05 02:09:50;;;;;;;13.88;8.85;;;;;;;15.67;80.40;101419.56;5027053;28;20040;-91
2023/05/05 02:12:18;;;;;;;13.63;8.57;;;;;;;15.61;82.15;101415.41;5026094;28;20037;-91
2023/05/05 02:14:45;;;;;;;13.50;8.27;;;;;;;15.60;79.44;101421.53;5026877;28;20073;-90
2023/05/05 02:17:12;;;;;;;12.90;8.27;;;;;;;15.58;80.63;101428.56;5023176;28;20072;-92
2023/05/05 02:19:40;;;;;;;12.82;8.15;;;;;;;15.56;80.52;101421.72;5027330;28;20025;-91
2023/05/05 02:22:06;;;;;;;10.75;7.57;;;;;;;15.48;82.22;101419.31;5023542;28;20096;-92
2023/05/05 02:24:31;;;;;;;11.95;7.72;;;;;;;15.42;80.33;101433.44;5023969;28;20544;-91
2023/05/05 02:26:58;;;;;;;11.43;7.30;;;;;;;15.36;79.52;101433.66;5025082;28;20109;-91
2023/05/05 02:29:35;;;;;;;10.60;7.22;;;;;;;15.29;81.27;101433.91;5037538;28;20028;-91
2023/05/05 02:32:05;;;;;;;9.02;6.53;;;;;;;15.25;80.25;101435.78;5024064;28;20026;-91
2023/05/05 02:34:35;;;;;;;10.88;6.78;;;;;;;15.18;83.31;101431.66;5025831;28;20406;-91
2023/05/05 02:37:04;;;;;;;10.18;6.95;;;;;;;15.10;80.31;101438.03;5024883;28;20022;-91
2023/05/05 02:39:39;;;;;;;8.85;6.60;;;;;;;15.02;82.48;101441.75;5025131;28;20032;-92
2023/05/05 02:42:06;;;;;;;10.95;6.30;;;;;;;14.95;81.67;101442.84;5024911;28;20026;-91
2023/05/05 02:44:34;;;;;;;11.50;6.50;;;;;;;14.88;83.95;101446.56;5027760;28;20029;-91
2023/05/05 02:47:02;;;;;;;9.23;6.13;;;;;;;14.79;81.97;101444.25;5023797;28;20044;-91
2023/05/05 02:49:28;;;;;;;9.27;6.65;;;;;;;14.72;83.11;101447.97;5036073;28;20037;-90
2023/05/05 02:51:53;;;;;;;11.65;7.50;;;;;;;14.66;82.61;101458.59;5023465;28;20034;-91
2023/05/05 02:54:18;;;;;;;11.63;7.00;;;;;;;14.64;84.15;101463.00;5024498;28;20037;-91
2023/05/05 02:56:49;;;;;;;12.18;7.70;;;;;;;14.60;83.45;101471.81;5025112;28;20025;-91
2023/05/05 02:59:29;;;;;;;10.52;6.70;;;;;;;14.53;84.21;101473.72;5023643;28;20024;-91
2023/05/05 03:02:16;;;;;;;10.18;6.72;;;;;;;14.47;82.06;101468.69;5024807;28;20025;-91
2023/05/05 03:04:47;;;;;;;8.27;5.80;;;;;;;14.37;82.12;101455.97;5024976;28;20029;-91
2023/05/05 03:07:48;;;;;;;9.77;6.20;;;;;;;14.35;83.62;101461.22;5023239;28;20121;-91
2023/05/05 03:10:24;;;;;;;8.73;5.10;;;;;;;14.29;82.81;101469.22;4998681;28;20041;-91
2023/05/05 03:13:01;;;;;;;6.70;4.60;;;;;;;14.22;83.93;101462.47;5024601;28;20025;-91
2023/05/05 03:15:33;;;;;;;6.90;4.82;;;;;;;14.19;85.57;101460.78;5024041;28;20432;-91
2023/05/05 03:18:01;;;;;;;6.60;4.63;;;;;;;14.09;85.91;101461.97;5025155;28;20048;-91
2023/05/05 03:20:27;;;;;;;6.63;4.40;;;;;;;14.06;84.32;101455.97;5023303;28;20121;-92
2023/05/05 03:22:53;;;;;;;6.90;4.43;;;;;;;14.00;84.16;101461.34;5024376;28;20063;-91
2023/05/05 03:25:19;;;;;;;6.22;4.55;;;;;;;13.98;85.45;101469.25;5025228;28;20021;-91
2023/05/05 03:27:44;;;;;;;7.28;4.40;;;;;;;13.91;85.36;101470.31;5022845;28;20025;-91
2023/05/05 03:30:10;;;;;;;6.20;4.32;;;;;;;13.89;87.27;101463.41;5024108;28;20975;-91
2023/05/05 03:32:36;;;;;;;7.07;4.32;;;;;;;13.78;87.25;101461.94;5024496;28;20037;-91
2023/05/05 03:35:01;;;;;;;7.40;4.40;;;;;;;13.75;87.17;101466.41;5023362;28;20021;-92
2023/05/05 03:37:26;;;;;;;6.18;4.00;;;;;;;13.74;88.04;101481.19;5024708;28;20545;-92
2023/05/05 03:39:52;;;;;;;6.63;4.40;;;;;;;13.68;85.51;101483.94;5024739;28;20017;-90
2023/05/05 03:42:17;;;;;;;8.10;4.70;;;;;;;13.63;88.68;101479.75;5023407;28;20362;-91
2023/05/05 03:44:42;;;;;;;7.50;4.27;;;;;;;13.54;89.07;101480.84;5024686;28;20300;-90
2023/05/05 03:47:08;;;;;;;6.80;4.53;;;;;;;13.48;86.45;101487.97;5024350;28;20527;-92
2023/05/05 03:49:33;;;;;;;6.82;4.47;;;;;;;13.44;89.84;101490.63;5034931;28;20030;-91
2023/05/05 03:51:58;;;;;;;8.20;4.75;;;;;;;13.37;89.55;101481.25;5024184;28;20041;-91
2023/05/05 03:54:24;;;;;;;7.78;4.40;;;;;;;13.31;89.11;101475.34;5024380;28;20038;-91
2023/05/05 03:56:49;;;;;;;7.13;4.40;;;;;;;13.21;90.29;101474.72;5023799;28;20036;-91
2023/05/05 03:59:14;;;;;;;7.93;4.57;;;;;;;13.17;90.27;101491.31;5024490;28;20034;-91
2023/05/05 04:01:44;;;;;;;6.95;4.38;;;;;;;13.12;91.68;101497.47;5023856;28;20029;-91
2023/05/05 04:04:09;;;;;;;8.13;4.45;;;;;;;13.00;90.77;101496.03;5022894;28;20048;-91
2023/05/05 04:06:34;;;;;;;8.35;4.50;;;;;;;12.96;91.57;101499.59;5024126;28;20394;-91
2023/05/05 04:09:00;;;;;;;8.32;5.00;;;;;;;12.89;91.36;101498.03;5022888;28;20033;-90
2023/05/05 04:11:25;;;;;;;7.78;5.32;;;;;;;12.85;92.71;101506.78;5022360;28;20060;-91
2023/05/05 04:13:50;;;;;;;8.73;6.03;;;;;;;12.80;91.20;101506.91;5015468;28;20037;-91
2023/05/05 04:16:16;;;;;;;7.88;5.38;;;;;;;12.81;93.26;101510.34;5029279;28;20288;-91
2023/05/05 04:18:44;;;;;;;8.13;5.63;;;;;;;12.73;91.80;101507.91;5020295;28;20029;-91
2023/05/05 04:21:09;;;;;;;10.68;6.72;;;;;;;12.75;93.76;101518.28;5019818;28;20127;-90
2023/05/05 04:23:34;;;;;;;10.77;7.13;;;;;;;12.71;92.08;101512.28;5020805;28;20030;-91
2023/05/05 04:26:00;;;;;;;17.27;8.82;;;;;;;12.73;93.31;101514.88;5021116;28;20033;-91
2023/05/05 04:28:25;;;;;;;13.50;9.25;;;;;;;12.70;92.93;101514.91;5022431;28;20083;-90
2023/05/05 04:30:50;;;;;;;16.45;9.70;;;;;;;12.71;93.63;101525.28;5022048;28;20479;-91
2023/05/05 04:33:16;;;;;;;15.20;9.52;;;;;;;12.71;93.08;101514.03;5020791;28;20480;-91
2023/05/05 04:35:41;;;;;;;15.95;10.32;;;;;;;12.72;94.94;101526.16;5019979;28;20041;-91
2023/05/05 04:38:06;;;;;;;16.13;10.48;;;;;;;12.72;95.48;101520.94;5023694;28;20039;-91
2023/05/05 04:40:32;;;;;;;18.65;11.60;;;;;;;12.73;95.75;101517.47;5038423;28;20064;-91
2023/05/05 04:42:57;;;;;;;19.58;11.82;;;;;;;12.72;96.59;101519.22;5037978;28;20045;-91
2023/05/05 04:45:22;;;;;;;17.17;11.53;;;;;;;12.77;97.10;101525.16;5025146;28;20041;-90
2023/05/05 04:47:47;;;;;;;19.42;11.93;;;;;;;12.77;97.53;101526.91;5024425;28;20298;-91
2023/05/05 04:50:13;;;;;;;21.27;12.93;;;;;;;12.77;97.32;101532.97;5018670;28;20041;-92
2023/05/05 04:52:39;;;;;;;20.40;12.40;;;;;;;12.75;97.59;101526.97;5023027;28;20052;-91
2023/05/05 04:55:05;;;;;;;20.50;12.07;;;;;;;12.72;95.60;101529.63;5021322;28;20140;-91
2023/05/05 04:57:30;;;;;;;20.48;12.55;;;;;;;12.71;97.03;101527.03;5024476;28;20025;-91
2023/05/05 04:59:56;;;;;;;22.25;13.13;;;;;;;12.74;96.24;101530.44;5023563;28;20053;-91
2023/05/05 05:02:21;;;;;;;19.02;12.98;;;;;;;12.74;97.74;101530.44;5023219;28;20033;-91
2023/05/05 05:04:46;;;;;;;19.48;12.60;;;;;;;12.75;95.34;101533.91;5024691;28;20025;-91
2023/05/05 05:07:13;;;;;;;20.02;12.75;;;;;;;12.75;96.13;101523.50;5023963;28;20457;-91
2023/05/05 05:09:39;;;;;;;19.20;12.15;;;;;;;12.80;96.60;101529.44;5024725;28;20061;-90
2023/05/05 05:12:06;;;;;;;18.40;12.25;;;;;;;12.83;94.99;101525.03;5021756;28;20490;-91
2023/05/05 05:14:38;;;;;;;17.55;11.95;;;;;;;12.88;97.27;101528.41;5023987;28;20260;-91
2023/05/05 05:17:04;;;;;;;21.58;13.45;;;;;;;12.94;98.92;101517.00;5022728;28;20036;-92
2023/05/05 05:19:30;;;;;;;22.27;12.77;;;;;;;12.99;99.35;101525.53;5038585;28;20021;-90
2023/05/05 05:21:55;;;;;;;18.55;12.57;;;;;;;13.02;96.92;101523.75;5022856;28;20017;-91
2023/05/05 05:24:21;;;;;;;19.80;12.73;;;;;;;13.05;98.67;101525.41;5022284;28;20025;-91
2023/05/05 05:26:46;;;;;;;18.92;12.10;;;;;;;13.07;97.05;101521.03;5020733;28;20029;-91
2023/05/05 05:29:12;;;;;;;19.27;12.30;;;;;;;13.14;98.79;101525.22;5021565;28;20061;-90
2023/05/05 05:31:38;;;;;;;20.73;12.55;;;;;;;13.16;99.94;101522.59;5019514;28;20033;-91
2023/05/05 05:34:04;;;;;;;18.85;12.45;;;;;;;13.15;98.80;101524.34;5016363;28;20093;-91
2023/05/05 05:36:30;;;;;;;20.30;12.25;;;;;;;13.25;99.69;101527.56;5015631;28;20625;-91
2023/05/05 05:38:55;;;;;;;23.92;13.20;;;;;;;13.34;99.38;101533.44;5023773;28;20380;-85
2023/05/05 05:41:21;;;;;;;21.25;12.95;;;;;;;13.37;97.64;101535.13;5024786;28;20506;-86
2023/05/05 05:43:46;;;;;;;20.52;13.40;;;;;;;13.48;100.00;101540.91;5017764;28;20510;-86
2023/05/05 05:46:11;;;;;;;20.43;12.27;;;;;;;13.53;97.43;101536.44;5017433;28;20036;-86
2023/05/05 05:48:37;;;;;;;19.63;12.25;;;;;;;13.62;99.27;101533.59;5024529;28;20306;-86
2023/05/05 05:51:02;;;;;;;23.30;13.50;;;;;;;13.82;98.77;101538.31;5024469;28;20054;-86
2023/05/05 05:53:27;;;;;;;21.42;13.32;;;;;;;14.37;98.87;101534.22;5025286;28;20049;-86
2023/05/05 05:55:53;;;;;;;22.17;13.35;;;;;;;15.09;96.96;101530.31;5021974;28;20964;-86
2023/05/05 05:58:18;;;;;;;20.98;13.20;;;;;;;15.50;94.76;101542.91;5019537;28;20029;-86
2023/05/05 06:00:44;;;;;;;21.63;12.90;;;;;;;15.61;92.80;101546.09;5019229;28;20053;-86
2023/05/05 06:03:09;;;;;;;20.95;12.32;;;;;;;15.62;91.40;101552.16;5021368;28;20085;-86
2023/05/05 06:05:34;;;;;;;20.93;13.17;;;;;;;15.54;91.70;101559.41;5020523;28;20122;-86
2023/05/05 06:08:00;;;;;;;21.02;13.38;;;;;;;15.67;92.15;101581.63;5022321;28;20872;-85
2023/05/05 06:10:25;;;;;;;21.75;14.38;;;;;;;15.99;88.58;101581.38;5022776;28;20032;-90
2023/05/05 06:12:50;;;;;;;22.57;14.37;;;;;;;16.30;87.50;101588.16;5015684;28;20025;-90
2023/05/05 06:15:16;;;;;;;23.37;13.83;;;;;;;16.40;86.92;101582.53;5013855;28;20656;-88
2023/05/05 06:17:41;;;;;;;20.98;13.75;;;;;;;16.48;84.42;101588.34;5018505;28;20291;-90
2023/05/05 06:20:07;;;;;;;23.90;14.20;;;;;;;16.43;83.27;101574.59;5021162;28;20108;-91
2023/05/05 06:22:32;;;;;;;22.40;13.55;;;;;;;16.36;83.86;101583.56;5022198;28;20284;-90
2023/05/05 06:24:58;;;;;;;22.33;14.43;;;;;;;16.32;85.10;101581.94;5023659;28;20033;-90
2023/05/05 06:27:23;;;;;;;22.38;14.15;;;;;;;16.28;87.51;101587.34;5025011;28;20325;-90
2023/05/05 06:29:48;;;;;;;21.70;14.10;;;;;;;16.30;86.14;101594.25;5024735;28;20106;-90
2023/05/05 06:32:14;;;;;;;22.67;14.00;;;;;;;16.34;87.47;101601.09;5025024;28;20318;-89
2023/05/05 06:34:39;;;;;;;25.05;14.27;;;;;;;16.38;86.16;101610.50;5024056;28;20283;-90
2023/05/05 06:37:05;;;;;;;26.17;15.95;;;;;;;16.37;84.93;101597.50;5024739;28;20021;-90
2023/05/05 06:39:30;;;;;;;26.13;15.35;;;;;;;16.43;85.03;101597.28;5022984;28;20072;-90
2023/05/05 06:41:55;;;;;;;24.80;15.23;;;;;;;16.54;84.68;101600.38;5023505;28;20018;-90
2023/05/05 06:44:21;;;;;;;25.75;16.20;;;;;;;16.69;84.20;101596.38;5025579;28;20041;-89
2023/05/05 06:46:46;;;;;;;24.75;15.57;;;;;;;16.80;85.08;101592.44;5025685;28;20090;-89
2023/05/05 06:49:11;;;;;;;24.13;14.83;;;;;;;16.97;85.54;101594.44;5022096;28;20033;-90
2023/05/05 06:51:36;;;;;;;24.88;15.23;;;;;;;17.32;85.87;101599.16;5023585;28;20390;-89
2023/05/05 06:54:02;;;;;;;22.98;15.25;;;;;;;17.90;85.21;101591.56;5023986;28;20108;-90
2023/05/05 06:56:27;;;;;;;22.73;13.57;;;;;;;18.44;79.45;101597.97;5025034;28;20041;-91
2023/05/05 06:58:52;;;;;;;23.03;14.10;;;;;;;18.91;77.74;101587.94;5025500;28;20064;-90
2023/05/05 07:01:18;;;;;;;22.00;13.45;;;;;;;19.33;74.64;101595.59;5024545;28;20287;-90
2023/05/05 07:03:43;;;;;;;19.50;12.38;;;;;;;19.96;74.25;101596.88;5024535;28;20029;-89
2023/05/05 07:06:08;;;;;;;19.45;12.50;;;;;;;20.46;73.98;101596.94;5023579;28;20029;-89
2023/05/05 07:08:34;;;;;;;21.50;12.63;;;;;;;21.06;70.51;101599.81;5023571;28;20036;-91
2023/05/05 07:11:00;;;;;;;18.98;11.95;;;;;;;21.92;65.75;101593.13;5023558;28;20290;-91
2023/05/05 07:13:25;;;;;;;19.15;10.88;;;;;;;22.81;61.40;101602.69;5024353;28;20022;-91
2023/05/05 07:15:51;;;;;;;16.35;10.60;;;;;;;23.27;60.11;101591.84;5025880;28;20059;-91
2023/05/05 07:18:16;;;;;;;16.60;10.07;;;;;;;23.41;59.90;101597.06;5026194;28;20052;-92
2023/05/05 07:20:45;;;;;;;17.10;10.93;;;;;;;23.74;60.13;101596.69;5025444;28;20067;-86
2023/05/05 07:23:11;;;;;;;16.02;10.38;;;;;;;24.02;57.27;101596.50;5026495;28;20112;-86
2023/05/05 07:25:37;;;;;;;13.80;9.45;;;;;;;24.45;55.76;101610.34;5023296;28;20502;-87
2023/05/05 07:28:03;;;;;;;18.38;9.27;;;;;;;24.63;53.17;101605.59;5023278;28;20175;-86
2023/05/05 07:30:28;;;;;;;13.93;8.07;;;;;;;24.77;55.07;101610.72;5012551;28;20076;-86
2023/05/05 07:32:54;;;;;;;15.15;9.18;;;;;;;25.41;48.98;101609.63;5024578;28;20038;-86
2023/05/05 07:35:19;;;;;;;12.75;8.75;;;;;;;26.12;50.33;101607.88;5026369;28;20095;-87
2023/05/05 07:37:45;;;;;;;12.85;8.70;;;;;;;26.63;47.96;101614.47;5025814;28;20021;-86
2023/05/05 07:40:11;;;;;;;14.13;8.32;;;;;;;27.33;47.83;101608.84;5026920;28;20501;-87
2023/05/05 07:42:36;;;;;;;13.65;8.57;;;;;;;27.81;43.50;101611.94;5028662;28;20044;-87
2023/05/05 07:45:03;;;;;;;13.43;8.90;;;;;;;27.00;45.70;101608.91;5025311;28;20053;-86
2023/05/05 07:47:28;;;;;;;11.98;8.68;;;;;;;26.78;49.19;101607.09;5037192;28;20069;-86
2023/05/05 07:49:53;;;;;;;12.43;8.00;;;;;;;26.92;44.17;101598.88;5027360;28;20041;-87
2023/05/05 07:52:19;;;;;;;12.43;8.75;;;;;;;26.15;46.14;101597.84;5026978;28;20387;-87
2023/05/05 07:54:44;;;;;;;13.32;8.85;;;;;;;26.43;45.07;101598.38;5027040;28;20030;-87
2023/05/05 07:57:10;;;;;;;11.52;8.27;;;;;;;27.30;45.44;101595.75;5027674;28;20497;-87
2023/05/05 07:59:37;;;;;;;11.65;7.97;;;;;;;27.98;42.07;101594.50;5026432;28;20028;-91
2023/05/05 08:02:02;;;;;;;12.50;8.40;;;;;;;27.30;42.11;101601.09;5027064;28;20063;-91
2023/05/05 08:04:28;;;;;;;15.10;8.85;;;;;;;26.21;44.57;101601.81;5026315;28;20825;-91
2023/05/05 08:06:53;;;;;;;12.33;7.73;;;;;;;25.12;47.98;101593.16;5026554;28;20044;-89
2023/05/05 08:09:18;;;;;;;12.13;7.67;;;;;;;24.97;51.06;101601.41;5027137;28;20295;-90
2023/05/05 08:11:43;;;;;;;11.20;7.43;;;;;;;25.80;47.71;101591.69;5027207;28;20379;-91
2023/05/05 08:14:09;;;;;;;11.70;7.77;;;;;;;26.44;45.98;101590.28;5025145;28;20356;-90
2023/05/05 08:16:34;;;;;;;12.95;7.78;;;;;;;26.23;45.74;101589.28;5022974;28;21091;-90
2023/05/05 08:19:00;;;;;;;10.35;6.82;;;;;;;25.92;49.14;101583.66;5025576;28;20039;-90
2023/05/05 08:21:26;;;;;;;11.38;7.15;;;;;;;26.22;46.24;101571.63;5025239;28;20029;-90
2023/05/05 08:23:51;;;;;;;10.60;7.30;;;;;;;26.01;45.16;101578.59;5025807;28;20103;-90
2023/05/05 08:26:17;;;;;;;10.98;7.15;;;;;;;26.49;47.07;101590.75;5025894;28;20036;-90
2023/05/05 08:28:42;;;;;;;11.65;7.45;;;;;;;27.29;44.93;101588.75;5023563;28;20311;-90
2023/05/05 08:31:08;;;;;;;11.75;7.70;;;;;;;27.79;44.53;101578.38;5026454;28;20090;-91
2023/05/05 08:33:33;;;;;;;14.50;7.30;;;;;;;28.27;41.42;101589.38;5028437;28;20085;-90
2023/05/05 08:35:58;;;;;;;10.98;6.82;;;;;;;28.57;40.93;101585.88;5031006;28;20024;-90
2023/05/05 08:38:24;;;;;;;10.07;6.70;;;;;;;28.78;40.32;101586.69;5031186;28;20025;-91
2023/05/05 08:40:50;;;;;;;9.35;6.15;;;;;;;28.82;41.86;101580.09;5030661;28;20051;-91
2023/05/05 08:43:19;;;;;;;8.52;6.10;;;;;;;28.81;38.67;101594.41;5030165;28;20041;-90
2023/05/05 08:45:45;;;;;;;11.55;7.07;;;;;;;28.23;40.69;101591.47;5030736;28;20014;-90
2023/05/05 08:48:11;;;;;;;9.93;5.90;;;;;;;27.65;40.76;101600.88;5031904;28;20026;-90
2023/05/05 08:50:38;;;;;;;11.02;6.47;;;;;;;26.71;42.88;101593.44;5031390;28;20034;-91
2023/05/05 08:53:14;;;;;;;9.70;5.88;;;;;;;25.93;44.90;101597.81;5040768;28;20053;-91
2023/05/05 08:55:55;;;;;;;10.13;5.35;;;;;;;25.35;45.15;101593.31;5028694;28;20037;-91
2023/05/05 08:58:23;;;;;;;8.95;6.20;;;;;;;24.54;46.71;101603.56;5030004;28;20040;-90
2023/05/05 09:00:49;;;;;;;7.63;5.35;;;;;;;23.97;48.11;101594.19;5029873;28;20040;-91
2023/05/05 09:03:15;;;;;;;10.35;5.43;;;;;;;23.68;51.89;101597.13;5031099;28;20029;-90
2023/05/05 09:05:42;;;;;;;6.30;4.40;;;;;;;23.43;49.30;101609.28;5027567;28;20224;-91
2023/05/05 09:08:09;;;;;;;7.63;4.00;;;;;;;23.06;51.51;101602.88;5030084;28;20021;-91
2023/05/05 09:10:35;;;;;;;6.55;4.40;;;;;;;22.81;51.23;101590.34;5027437;28;20110;-92
2023/05/05 09:13:04;;;;;;;8.57;5.07;;;;;;;22.53;52.53;101600.88;5027821;28;20035;-90
2023/05/05 09:15:31;;;;;;;6.10;4.03;;;;;;;22.25;54.12;101595.59;5027790;28;20033;-92
2023/05/05 09:17:57;;;;;;;7.68;4.47;;;;;;;22.21;56.86;101609.94;5027941;28;20036;-90
2023/05/05 09:20:23;;;;;;;8.38;4.20;;;;;;;22.08;58.19;101588.69;5028517;28;20038;-92
2023/05/05 09:22:48;;;;;;;9.45;4.68;;;;;;;22.19;54.86;101595.94;5028511;28;20032;-90
2023/05/05 09:25:17;;;;;;;7.88;3.80;;;;;;;22.19;59.21;101599.44;5027854;28;20446;-92
2023/05/05 09:27:47;;;;;;;8.40;4.28;;;;;;;22.42;56.12;101612.13;5028909;28;20461;-91
2023/05/05 09:30:15;;;;;;;5.43;3.47;;;;;;;22.35;52.93;101602.88;5026323;28;20029;-91
2023/05/05 09:32:49;;;;;;;6.97;3.05;;;;;;;22.27;52.31;101609.56;5028736;28;20083;-92
2023/05/05 09:35:16;;;;;;;5.03;2.40;;;;;;;22.18;56.91;101623.31;5025615;28;20607;-91
2023/05/05 09:37:42;;;;;;;5.78;3.15;;;;;;;21.86;56.27;101615.47;5027475;28;20048;-92
2023/05/05 09:40:08;;;;;;;7.30;3.03;;;;;;;21.67;54.83;101613.06;5029126;28;20025;-91
2023/05/05 09:42:37;;;;;;;6.70;3.85;;;;;;;21.58;54.76;101615.34;5029094;28;20041;-91
2023/05/05 09:45:24;;;;;;;6.80;3.95;;;;;;;21.41;56.46;101604.94;5027853;28;20120;-91
2023/05/05 09:47:49;;;;;;;6.53;3.08;;;;;;;21.27;58.91;101616.25;5028659;28;20445;-91
2023/05/05 09:50:17;;;;;;;6.55;2.63;;;;;;;21.02;59.93;101603.53;5026539;28;20490;-91
2023/05/05 09:52:54;;;;;;;4.47;2.40;;;;;;;21.09;58.46;101612.81;5009346;28;20050;-91
2023/05/05 09:55:20;;;;;;;6.40;3.35;;;;;;;21.00;55.17;101601.94;5027548;28;20030;-91
2023/05/05 09:57:46;;;;;;;7.15;3.67;;;;;;;20.99;55.65;101602.88;5029034;28;20056;-91
2023/05/05 10:00:12;;;;;;;5.65;3.28;;;;;;;20.86;62.81;101600.91;5028524;28;20087;-91
2023/05/05 10:02:38;;;;;;;6.65;3.60;;;;;;;20.90;57.48;101597.16;5028689;28;20025;-90
2023/05/05 10:05:05;;;;;;;7.55;4.07;;;;;;;20.79;57.46;101586.34;5027957;28;20362;-91
2023/05/05 10:07:30;;;;;;;5.85;3.72;;;;;;;20.74;58.84;101584.91;5030085;28;20036;-90
2023/05/05 10:09:56;;;;;;;6.70;4.22;;;;;;;20.68;59.13;101599.25;5030100;28;20124;-90
2023/05/05 10:12:22;;;;;;;6.90;4.40;;;;;;;20.55;59.26;101595.56;5026661;28;20021;-91
2023/05/05 10:14:51;;;;;;;9.02;4.60;;;;;;;20.50;63.09;101602.88;5027368;28;20132;-91
2023/05/05 10:17:18;;;;;;;7.55;4.40;;;;;;;20.47;65.01;101597.78;5027232;28;20020;-90
2023/05/05 10:19:45;;;;;;;7.30;4.22;;;;;;;20.42;65.57;101598.00;5027522;28;20025;-91
2023/05/05 10:22:10;;;;;;;6.10;3.80;;;;;;;20.47;63.15;101588.06;5027396;28;20025;-90
2023/05/05 10:24:47;;;;;;;8.43;4.00;;;;;;;20.53;63.73;101588.69;5026345;28;20075;-91
2023/05/05 10:27:22;;;;;;;9.25;5.05;;;;;;;20.45;65.59;101595.22;5026226;28;20667;-91
2023/05/05 10:29:47;;;;;;;;;;;;;;;20.66;62.16;101605.56;5026338;28;20112;-91
2023/05/05 10:32:29;;;;;;;7.73;4.30;;;;;;;20.47;63.11;101597.78;5027971;28;20007;-91
2023/05/05 10:35:02;;;;;;;8.70;4.90;;;;;;;20.46;64.27;101602.19;5026600;28;20033;-91
2023/05/05 10:37:29;;;;;;;11.40;4.93;;;;;;;20.44;61.93;101598.78;5026852;28;20117;-90
2023/05/05 10:39:56;;;;;;;8.55;4.13;;;;;;;20.37;62.74;101599.19;5026601;28;20075;-91
2023/05/05 10:42:22;;;;;;;7.22;4.15;;;;;;;20.23;61.47;101599.88;5036376;28;20061;-91
2023/05/05 10:44:48;;;;;;;7.40;4.00;;;;;;;20.03;61.49;101598.25;5024955;28;20029;-90
2023/05/05 10:47:18;;;;;;;6.35;3.80;;;;;;;19.83;65.79;101597.56;5027110;28;20451;-91
2023/05/05 10:50:01;;;;;;;9.48;5.00;;;;;;;19.71;67.11;101604.28;5026265;28;20044;-91
2023/05/05 10:53:00;;;;;;;12.90;5.85;;;;;;;19.40;75.18;101623.28;5025852;28;20049;-93
2023/05/05 10:56:09;;;;;;;14.23;6.80;;;;;;;18.90;75.97;101629.13;5033767;28;20461;-93
2023/05/05 10:58:37;;;;;;;13.20;6.75;;;;;;;18.15;86.03;101638.63;4997429;28;20463;-94
2023/05/05 11:01:04;;;;;;;11.27;5.65;;;;;;;17.41;91.40;101623.28;5024692;28;20087;-95
2023/05/05 11:03:30;;;;;;;14.27;5.97;;;;;;;16.87;94.91;101634.94;5026900;28;20036;-93
2023/05/05 11:08:31;;;;;;;12.45;6.25;;;;;;;16.32;100.00;101634.28;5025952;28;20041;-93
2023/05/05 11:10:57;;;;;;;13.18;6.95;;;;;;;16.20;100.00;101632.09;5023206;28;20079;-93
2023/05/05 11:13:23;;;;;;;14.63;7.07;;;;;;;16.03;100.00;101621.38;5025547;28;20029;-93
2023/05/05 11:15:55;;;;;;;14.93;7.22;;;;;;;15.98;100.00;101624.13;5023585;28;21047;-93
2023/05/05 11:18:28;;;;;;;13.90;7.40;;;;;;;15.83;100.00;101622.00;5024914;28;20506;-93
2023/05/05 11:20:56;;;;;;;14.95;8.32;;;;;;;15.97;100.00;101647.69;5031470;28;20095;-92
2023/05/05 11:23:22;;;;;;;10.20;5.28;;;;;;;15.69;100.00;101637.31;5023058;28;20937;-92